createdAt,value
2023-02-03T00:00:10.446Z,101311.20
2023-02-03T00:02:58.691Z,101304.00
2023-02-03T00:05:27.749Z,101296.60
2023-02-03T00:07:58.586Z,101288.60
2023-02-03T00:10:27.070Z,101281.40
2023-02-03T00:12:56.359Z,101282.20
2023-02-03T00:15:24.336Z,101274.60
2023-02-03T00:17:53.258Z,101265.40
2023-02-03T00:20:21.028Z,101250.80
2023-02-03T00:22:49.149Z,101247.80
2023-02-03T00:25:18.485Z,101239.80
2023-02-03T00:27:48.789Z,101228.80
2023-02-03T00:30:20.027Z,101225.40
2023-02-03T00:32:47.793Z,101218.60
2023-02-03T00:35:15.723Z,101212.60
2023-02-03T00:37:44.821Z,101203.80
2023-02-03T00:40:13.669Z,101205.80
2023-02-03T00:42:41.729Z,101200.20
2023-02-03T00:45:10.513Z,101188.00
2023-02-03T00:47:38.390Z,101181.60
2023-02-03T00:50:08.298Z,101167.20
2023-02-03T00:52:37.036Z,101151.40
2023-02-03T00:55:06.334Z,101150.40
2023-02-03T00:57:34.456Z,101143.80
2023-02-03T01:00:02.873Z,101132.00
2023-02-03T01:02:31.139Z,101123.60
2023-02-03T01:04:59.595Z,101129.60
2023-02-03T01:07:31.056Z,101122.20
2023-02-03T01:09:59.019Z,101128.40
2023-02-03T01:12:30.783Z,101118.80
2023-02-03T01:15:01.494Z,101121.60
2023-02-03T01:17:31.763Z,101113.80
2023-02-03T01:20:02.053Z,101107.80
2023-02-03T01:22:30.856Z,101109.80
2023-02-03T01:24:59.722Z,101100.80
2023-02-03T01:27:29.870Z,101095.60
2023-02-03T01:30:00.178Z,101088.20
2023-02-03T01:32:28.435Z,101083.40
2023-02-03T01:34:56.215Z,101079.60
2023-02-03T01:37:23.930Z,101074.00
2023-02-03T01:39:51.724Z,101068.60
2023-02-03T01:42:19.421Z,101061.60
2023-02-03T01:44:55.241Z,101056.60
2023-02-03T01:47:39.940Z,101051.60
2023-02-03T01:50:25.213Z,101052.20
2023-02-03T01:53:01.782Z,101047.60
2023-02-03T01:55:42.911Z,101042.60
2023-02-03T01:58:20.735Z,101045.60
2023-02-03T02:00:49.992Z,101043.20
2023-02-03T02:03:27.370Z,101040.60
2023-02-03T02:06:09.463Z,101038.40
2023-02-03T02:08:40.358Z,101030.20
2023-02-03T02:11:10.322Z,101028.60
2023-02-03T02:13:39.965Z,101019.40
2023-02-03T02:16:07.862Z,101017.00
2023-02-03T02:19:27.624Z,101015.20
2023-02-03T02:22:10.649Z,101004.20
2023-02-03T02:25:07.467Z,100999.00
2023-02-03T02:28:32.330Z,100985.80
2023-02-03T02:31:33.296Z,100977.00
2023-02-03T02:34:43.052Z,100967.80
2023-02-03T02:37:36.461Z,100959.00
2023-02-03T02:40:26.708Z,100957.40
2023-02-03T02:43:06.075Z,100947.00
2023-02-03T02:46:14.962Z,100934.00
2023-02-03T02:48:52.579Z,100924.40
2023-02-03T02:51:23.857Z,100905.80
2023-02-03T02:54:04.015Z,100899.80
2023-02-03T02:56:37.055Z,100888.60
2023-02-03T02:59:07.992Z,100879.20
2023-02-03T03:01:36.176Z,100865.00
2023-02-03T03:04:08.928Z,100849.40
2023-02-03T03:06:44.066Z,100837.20
2023-02-03T03:09:36.099Z,100821.40
2023-02-03T03:12:14.414Z,100811.20
2023-02-03T03:14:54.342Z,100810.20
2023-02-03T03:17:39.969Z,100803.20
2023-02-03T03:20:18.881Z,100796.80
2023-02-03T03:22:56.264Z,100786.40
2023-02-03T03:25:36.884Z,100774.40
2023-02-03T03:28:17.159Z,100771.40
2023-02-03T03:30:46.726Z,100760.80
2023-02-03T03:33:14.612Z,100753.60
2023-02-03T03:35:55.321Z,100747.60
2023-02-03T03:38:39.002Z,100735.60
2023-02-03T03:41:42.038Z,100721.80
2023-02-03T03:44:16.823Z,100713.40
2023-02-03T03:47:12.415Z,100709.80
2023-02-03T03:49:46.952Z,100699.20
2023-02-03T03:52:22.552Z,100693.60
2023-02-03T03:54:53.935Z,100681.20
2023-02-03T03:57:30.839Z,100681.40
2023-02-03T04:00:02.587Z,100674.00
2023-02-03T04:02:34.068Z,100662.20
2023-02-03T04:05:04.806Z,100659.60
2023-02-03T04:07:45.486Z,100657.20
2023-02-03T04:10:35.215Z,100650.80
2023-02-03T04:13:04.697Z,100647.40
2023-02-03T04:15:34.230Z,100645.80
2023-02-03T04:18:02.866Z,100649.80
2023-02-03T04:20:32.573Z,100645.40
2023-02-03T04:23:00.815Z,100638.60
2023-02-03T04:25:28.737Z,100638.80
2023-02-03T04:27:56.623Z,100641.00
2023-02-03T04:30:24.656Z,100638.00
2023-02-03T04:32:55.128Z,100647.40
2023-02-03T04:35:23.082Z,100658.60
2023-02-03T04:37:51.975Z,100655.80
2023-02-03T04:40:19.815Z,100652.40
2023-02-03T04:42:47.706Z,100651.80
2023-02-03T04:45:16.127Z,100652.00
2023-02-03T04:47:44.139Z,100658.40
2023-02-03T04:50:13.291Z,100657.20
2023-02-03T04:52:41.023Z,100663.60
2023-02-03T04:55:10.164Z,100658.00
2023-02-03T04:57:41.249Z,100652.80
2023-02-03T05:00:10.758Z,100643.80
2023-02-03T05:02:39.344Z,100644.40
2023-02-03T05:05:07.876Z,100647.60
2023-02-03T05:07:35.714Z,100643.40
2023-02-03T05:10:04.267Z,100646.20
2023-02-03T05:12:32.270Z,100643.80
2023-02-03T05:14:59.985Z,100644.20
2023-02-03T05:17:27.796Z,100633.80
2023-02-03T05:19:55.940Z,100626.40
2023-02-03T05:22:23.653Z,100622.40
2023-02-03T05:24:54.176Z,100624.00
2023-02-03T05:27:22.853Z,100618.40
2023-02-03T05:29:51.924Z,100617.00
2023-02-03T05:32:20.026Z,100610.60
2023-02-03T05:34:47.748Z,100614.60
2023-02-03T05:37:16.091Z,100610.40
2023-02-03T05:39:44.158Z,100617.40
2023-02-03T05:42:12.930Z,100608.20
2023-02-03T05:44:41.617Z,100610.20
2023-02-03T05:47:09.871Z,100610.20
2023-02-03T05:49:37.905Z,100604.40
2023-02-03T05:52:07.902Z,100611.00
2023-02-03T05:54:36.275Z,100615.40
2023-02-03T05:57:05.861Z,100621.00
2023-02-03T05:59:34.194Z,100624.80
2023-02-03T06:02:01.924Z,100628.40
2023-02-03T06:04:30.285Z,100626.60
2023-02-03T06:06:58.363Z,100628.20
2023-02-03T06:09:26.679Z,100638.20
2023-02-03T06:11:54.579Z,100638.80
2023-02-03T06:14:22.446Z,100632.60
2023-02-03T06:16:50.766Z,100651.80
2023-02-03T06:19:18.533Z,100654.20
2023-02-03T06:21:47.298Z,100666.00
2023-02-03T06:24:15.462Z,100669.60
2023-02-03T06:26:43.543Z,100666.60
2023-02-03T06:29:11.431Z,100664.20
2023-02-03T06:31:39.592Z,100661.60
2023-02-03T06:34:11.218Z,100664.00
2023-02-03T06:36:38.912Z,100670.20
2023-02-03T06:39:06.881Z,100674.80
2023-02-03T06:41:34.843Z,100683.20
2023-02-03T06:44:02.620Z,100684.60
2023-02-03T06:46:31.004Z,100697.00
2023-02-03T06:48:59.100Z,100696.40
2023-02-03T06:51:26.989Z,100710.00
2023-02-03T06:53:55.032Z,100712.00
2023-02-03T06:56:23.393Z,100712.80
2023-02-03T06:58:52.270Z,100714.20
2023-02-03T07:01:20.452Z,100716.00
2023-02-03T07:03:49.580Z,100716.40
2023-02-03T07:06:17.741Z,100721.20
2023-02-03T07:08:45.539Z,100726.20
2023-02-03T07:11:13.719Z,100730.40
2023-02-03T07:13:41.464Z,100731.80
2023-02-03T07:16:09.222Z,100740.00
2023-02-03T07:18:47.268Z,100742.80
2023-02-03T07:21:17.635Z,100745.40
2023-02-03T07:23:50.185Z,100753.80
2023-02-03T07:26:19.055Z,100752.00
2023-02-03T07:28:47.910Z,100759.60
2023-02-03T07:31:21.967Z,100768.60
2023-02-03T07:33:50.056Z,100772.00
2023-02-03T07:36:17.859Z,100772.20
2023-02-03T07:38:45.552Z,100773.00
2023-02-03T07:41:13.287Z,100771.80
2023-02-03T07:43:41.241Z,100775.60
2023-02-03T07:46:13.934Z,100774.20
2023-02-03T07:48:41.787Z,100774.20
2023-02-03T07:51:09.641Z,100781.40
2023-02-03T07:53:37.520Z,100785.20
2023-02-03T07:56:06.510Z,100785.60
2023-02-03T07:58:35.505Z,100794.60
2023-02-03T08:01:15.948Z,100787.40
2023-02-03T08:03:45.010Z,100793.20
2023-02-03T08:06:13.868Z,100802.80
2023-02-03T08:08:42.178Z,100813.40
2023-02-03T08:11:13.061Z,100832.80
2023-02-03T08:13:40.893Z,100844.00
2023-02-03T08:16:09.024Z,100854.20
2023-02-03T08:18:39.532Z,100865.60
2023-02-03T08:21:07.957Z,100866.40
2023-02-03T08:23:35.771Z,100874.20
2023-02-03T08:26:03.774Z,100879.60
2023-02-03T08:28:31.519Z,100885.60
2023-02-03T08:31:00.186Z,100891.20
2023-02-03T08:33:28.890Z,100893.00
2023-02-03T08:35:57.131Z,100900.00
2023-02-03T08:38:25.090Z,100901.20
2023-02-03T08:40:55.481Z,100903.40
2023-02-03T08:43:23.347Z,100909.00
2023-02-03T08:45:51.655Z,100914.80
2023-02-03T08:48:19.555Z,100915.40
2023-02-03T08:50:53.017Z,100914.20
2023-02-03T08:53:20.826Z,100921.40
2023-02-03T08:55:50.691Z,100931.20
2023-02-03T08:58:18.649Z,100936.80
2023-02-03T09:00:50.181Z,100944.80
2023-02-03T09:03:18.478Z,100947.00
2023-02-03T09:05:46.682Z,100943.00
2023-02-03T09:08:16.779Z,100948.20
2023-02-03T09:10:44.456Z,100957.00
2023-02-03T09:13:12.302Z,100966.40
2023-02-03T09:15:40.010Z,100979.20
2023-02-03T09:18:11.111Z,100993.20
2023-02-03T09:20:39.264Z,101006.80
2023-02-03T09:23:07.295Z,101016.80
2023-02-03T09:25:35.020Z,101018.20
2023-02-03T09:28:03.470Z,101025.60
2023-02-03T09:30:31.636Z,101030.80
2023-02-03T09:33:00.200Z,101035.00
2023-02-03T09:35:29.527Z,101038.80
2023-02-03T09:37:59.462Z,101038.00
2023-02-03T09:40:38.506Z,101041.80
2023-02-03T09:43:35.307Z,101057.20
2023-02-03T09:46:22.150Z,101071.60
2023-02-03T09:49:06.561Z,101078.00
2023-02-03T09:51:47.082Z,101086.00
2023-02-03T09:55:09.747Z,101090.60
2023-02-03T09:57:51.564Z,101091.40
2023-02-03T10:00:30.535Z,101087.00
2023-02-03T10:03:18.303Z,101088.60
2023-02-03T10:06:12.436Z,101102.60
2023-02-03T10:09:06.974Z,101110.60
2023-02-03T10:11:52.893Z,101119.60
2023-02-03T10:15:02.607Z,101118.80
2023-02-03T10:17:36.333Z,101116.80
2023-02-03T10:20:23.148Z,101128.80
2023-02-03T10:23:04.787Z,101146.40
2023-02-03T10:25:57.317Z,101164.40
2023-02-03T10:28:33.128Z,101179.20
2023-02-03T10:31:09.403Z,101187.00
2023-02-03T10:33:37.842Z,101200.40
2023-02-03T10:36:49.928Z,101214.20
2023-02-03T10:39:31.770Z,101215.40
2023-02-03T10:42:03.040Z,101212.60
2023-02-03T10:44:42.983Z,101217.40
2023-02-03T10:47:35.621Z,101229.60
2023-02-03T10:50:10.886Z,101247.80
2023-02-03T10:52:39.484Z,101259.00
2023-02-03T10:55:31.057Z,101269.80
2023-02-03T10:58:16.161Z,101272.20
2023-02-03T11:00:43.902Z,101277.00
2023-02-03T11:03:31.559Z,101277.00
2023-02-03T11:06:17.841Z,101288.00
2023-02-03T11:08:50.267Z,101292.60
2023-02-03T11:11:35.983Z,101299.60
2023-02-03T11:14:03.718Z,101307.20
2023-02-03T11:16:35.155Z,101314.40
2023-02-03T11:19:05.706Z,101312.00
2023-02-03T11:21:39.794Z,101310.00
2023-02-03T11:24:30.228Z,101310.00
2023-02-03T11:27:09.827Z,101318.80
2023-02-03T11:29:48.282Z,101338.40
2023-02-03T11:32:41.927Z,101357.60
2023-02-03T11:35:26.905Z,101363.00
2023-02-03T11:37:59.844Z,101364.00
2023-02-03T11:40:34.369Z,101378.20
2023-02-03T11:43:17.928Z,101385.00
2023-02-03T11:45:51.931Z,101396.00
2023-02-03T11:49:15.391Z,101397.60
2023-02-03T11:52:35.960Z,101410.60
2023-02-03T11:55:46.513Z,101418.20
2023-02-03T11:59:06.189Z,101424.40
2023-02-03T12:02:41.331Z,101436.60
2023-02-03T12:05:37.264Z,101447.60
2023-02-03T12:08:20.262Z,101462.60
2023-02-03T12:11:32.448Z,101479.60
2023-02-03T12:14:27.842Z,101486.40
2023-02-03T12:17:17.556Z,101485.80
2023-02-03T12:19:52.685Z,101486.60
2023-02-03T12:22:32.737Z,101480.80
2023-02-03T12:25:44.863Z,101484.00
2023-02-03T12:28:43.577Z,101485.20
2023-02-03T12:31:33.330Z,101487.40
2023-02-03T12:34:36.184Z,101494.00
2023-02-03T12:37:33.473Z,101510.20
2023-02-03T12:40:14.320Z,101523.60
2023-02-03T12:42:59.024Z,101535.20
2023-02-03T12:45:33.542Z,101541.80
2023-02-03T12:48:10.294Z,101544.60
2023-02-03T12:50:56.575Z,101549.20
2023-02-03T12:53:35.094Z,101559.80
2023-02-03T12:56:18.511Z,101571.40
2023-02-03T12:59:00.603Z,101584.60
2023-02-03T13:01:38.686Z,101602.00
2023-02-03T13:04:30.744Z,101606.20
2023-02-03T13:07:26.106Z,101622.40
2023-02-03T13:10:23.090Z,101632.60
2023-02-03T13:12:57.990Z,101641.60
2023-02-03T13:15:34.681Z,101651.80
2023-02-03T13:18:26.814Z,101662.00
2023-02-03T13:20:58.017Z,101673.00
2023-02-03T13:23:28.156Z,101679.20
2023-02-03T13:26:25.442Z,101686.80
2023-02-03T13:29:33.195Z,101700.60
2023-02-03T13:32:47.805Z,101715.60
2023-02-03T13:35:46.677Z,101727.00
2023-02-03T13:38:14.734Z,101733.80
2023-02-03T13:41:41.724Z,101747.80
2023-02-03T13:44:22.797Z,101752.20
2023-02-03T13:46:53.027Z,101754.40
2023-02-03T13:50:10.170Z,101768.20
2023-02-03T13:52:57.450Z,101779.80
2023-02-03T13:55:52.295Z,101788.60
2023-02-03T13:58:32.015Z,101795.20
2023-02-03T14:01:30.658Z,101813.20
2023-02-03T14:04:01.403Z,101817.40
2023-02-03T14:07:03.730Z,101828.40
2023-02-03T14:09:32.856Z,101839.40
2023-02-03T14:12:36.209Z,101849.40
2023-02-03T14:15:28.756Z,101850.80
2023-02-03T14:18:26.136Z,101866.80
2023-02-03T14:21:10.122Z,101880.40
2023-02-03T14:23:45.868Z,101895.80
2023-02-03T14:26:44.497Z,101908.20
2023-02-03T14:29:30.355Z,101920.20
2023-02-03T14:32:13.659Z,101932.40
2023-02-03T14:34:48.309Z,101936.40
2023-02-03T14:37:19.484Z,101941.80
2023-02-03T14:40:26.637Z,101950.20
2023-02-03T14:43:35.129Z,101954.00
2023-02-03T14:46:33.956Z,101957.40
2023-02-03T14:49:45.314Z,101960.60
2023-02-03T14:52:53.635Z,101980.60
2023-02-03T14:55:51.421Z,101992.00
2023-02-03T14:58:34.403Z,101998.40
2023-02-03T15:01:08.395Z,102006.60
2023-02-03T15:03:42.463Z,102008.60
2023-02-03T15:06:57.504Z,102011.20
2023-02-03T15:09:47.500Z,102024.00
2023-02-03T15:12:26.583Z,102033.00
2023-02-03T15:15:31.671Z,102039.40
2023-02-03T15:18:28.100Z,102056.60
2023-02-03T15:20:57.229Z,102069.40
2023-02-03T15:23:31.189Z,102079.20
2023-02-03T15:26:13.002Z,102090.00
2023-02-03T15:28:42.260Z,102096.20
2023-02-03T15:31:35.543Z,102095.00
2023-02-03T15:34:23.331Z,102103.80
2023-02-03T15:36:56.450Z,102113.20
2023-02-03T15:39:44.503Z,102132.00
2023-02-03T15:42:36.588Z,102132.40
2023-02-03T15:45:46.118Z,102147.60
2023-02-03T15:48:43.724Z,102147.60
2023-02-03T15:51:44.536Z,102156.80
2023-02-03T15:54:30.346Z,102167.80
2023-02-03T15:57:11.000Z,102177.80
2023-02-03T16:00:01.234Z,102186.80
2023-02-03T16:02:36.365Z,102188.00
2023-02-03T16:05:33.301Z,102201.00
2023-02-03T16:08:46.466Z,102211.40
2023-02-03T16:11:46.459Z,102224.00
2023-02-03T16:14:37.069Z,102226.00
2023-02-03T16:17:24.399Z,102232.20
2023-02-03T16:20:25.359Z,102238.40
2023-02-03T16:23:19.828Z,102249.40
2023-02-03T16:26:34.998Z,102265.60
2023-02-03T16:29:32.439Z,102275.80
2023-02-03T16:32:20.227Z,102282.80
2023-02-03T16:35:06.987Z,102295.40
2023-02-03T16:38:03.723Z,102308.20
2023-02-03T16:40:51.255Z,102321.20
2023-02-03T16:43:40.355Z,102338.20
2023-02-03T16:46:31.401Z,102338.60
2023-02-03T16:49:19.511Z,102343.60
2023-02-03T16:51:55.044Z,102352.00
2023-02-03T16:54:24.624Z,102351.60
2023-02-03T16:56:53.289Z,102356.60
2023-02-03T16:59:21.273Z,102369.40
2023-02-03T17:01:51.809Z,102385.60
2023-02-03T17:04:26.892Z,102386.00
2023-02-03T17:06:55.068Z,102396.00
2023-02-03T17:09:25.020Z,102409.40
2023-02-03T17:11:53.187Z,102421.00
2023-02-03T17:14:21.527Z,102424.40
2023-02-03T17:16:49.396Z,102432.00
2023-02-03T17:19:22.960Z,102447.60
2023-02-03T17:21:51.794Z,102450.20
2023-02-03T17:24:20.007Z,102452.00
2023-02-03T17:26:48.272Z,102465.00
2023-02-03T17:29:16.059Z,102471.60
2023-02-03T17:31:44.906Z,102481.00
2023-02-03T17:34:12.730Z,102492.20
2023-02-03T17:36:40.603Z,102502.20
2023-02-03T17:55:33.866Z,102545.20
2023-02-03T17:58:02.450Z,102549.40
2023-02-03T18:00:30.659Z,102553.20
2023-02-03T18:02:58.890Z,102552.60
2023-02-03T18:05:28.940Z,102559.60
2023-02-03T18:08:09.185Z,102568.00
2023-02-03T18:10:44.429Z,102572.20
2023-02-03T18:13:12.614Z,102591.60
2023-02-03T18:15:40.681Z,102607.40
2023-02-03T18:18:09.296Z,102607.80
2023-02-03T18:20:40.023Z,102621.80
2023-02-03T18:23:09.328Z,102627.80
2023-02-03T18:25:38.975Z,102620.80
2023-02-03T18:28:06.766Z,102632.00
2023-02-03T18:30:34.637Z,102641.60
2023-02-03T18:33:04.098Z,102647.20
2023-02-03T18:35:33.860Z,102658.40
2023-02-03T18:38:01.928Z,102674.60
2023-02-03T18:40:29.967Z,102679.40
2023-02-03T18:42:59.284Z,102687.00
2023-02-03T18:45:29.847Z,102693.00
2023-02-03T18:47:57.622Z,102695.00
2023-02-03T18:50:25.738Z,102696.00
2023-02-03T18:52:55.558Z,102702.20
2023-02-03T18:55:25.051Z,102713.60
2023-02-03T18:57:53.194Z,102719.00
2023-02-03T19:00:22.642Z,102730.00
2023-02-03T19:02:50.817Z,102734.80
2023-02-03T19:05:20.375Z,102737.00
2023-02-03T19:07:48.186Z,102744.80
2023-02-03T19:10:18.406Z,102758.40
2023-02-03T19:12:47.716Z,102769.60
2023-02-03T19:15:15.882Z,102779.40
2023-02-03T19:17:44.473Z,102784.60
2023-02-03T19:20:16.432Z,102793.60
2023-02-03T19:22:44.800Z,102798.80
2023-02-03T19:25:12.715Z,102807.40
2023-02-03T19:27:40.712Z,102811.60
2023-02-03T19:30:13.767Z,102820.80
2023-02-03T19:32:41.758Z,102837.20
2023-02-03T19:35:10.879Z,102837.60
2023-02-03T19:37:40.405Z,102843.60
2023-02-03T19:40:09.470Z,102853.40
2023-02-03T19:42:39.725Z,102858.40
2023-02-03T19:45:09.009Z,102861.40
2023-02-03T19:47:37.273Z,102870.60
2023-02-03T19:50:06.840Z,102879.80
2023-02-03T19:52:34.926Z,102891.40
2023-02-03T19:55:02.960Z,102901.60
2023-02-03T19:57:31.538Z,102904.80
2023-02-03T20:00:00.059Z,102911.80
2023-02-03T20:02:28.690Z,102916.60
2023-02-03T20:04:57.656Z,102928.40
2023-02-03T20:07:28.559Z,102934.20
2023-02-03T20:09:56.981Z,102937.80
2023-02-03T20:12:24.764Z,102947.80
2023-02-03T20:14:52.530Z,102951.20
2023-02-03T20:17:20.454Z,102951.20
2023-02-03T20:19:48.199Z,102962.00
2023-02-03T20:22:16.055Z,102974.40
2023-02-03T20:24:43.777Z,102982.80
2023-02-03T20:27:12.134Z,102992.20
2023-02-03T20:29:39.901Z,102995.40
2023-02-03T20:32:09.503Z,103005.40
2023-02-03T20:34:38.028Z,103014.40
2023-02-03T20:37:07.085Z,103028.20
2023-02-03T20:39:35.411Z,103019.40
2023-02-03T20:42:16.686Z,103018.80
2023-02-03T20:44:45.979Z,103025.40
2023-02-03T20:47:22.340Z,103031.00
2023-02-03T20:49:50.174Z,103043.20
2023-02-03T20:52:21.143Z,103037.60
2023-02-03T20:54:48.966Z,103048.40
2023-02-03T20:57:20.655Z,103055.40
2023-02-03T20:59:48.453Z,103072.20
2023-02-03T21:02:23.235Z,103074.20
2023-02-03T21:04:57.822Z,103073.20
2023-02-03T21:07:33.163Z,103080.20
2023-02-03T21:10:13.173Z,103079.80
2023-02-03T21:12:41.288Z,103090.60
2023-02-03T21:15:30.144Z,103097.20
2023-02-03T21:17:58.088Z,103096.00
2023-02-03T21:20:31.617Z,103103.60
2023-02-03T21:22:59.703Z,103107.80
2023-02-03T21:25:30.305Z,103113.40
2023-02-03T21:28:02.174Z,103112.00
2023-02-03T21:30:35.072Z,103122.60
2023-02-03T21:33:29.330Z,103131.40
2023-02-03T21:35:57.185Z,103137.80
2023-02-03T21:38:33.467Z,103139.40
2023-02-03T21:41:02.348Z,103145.20
2023-02-03T21:43:36.607Z,103147.20
2023-02-03T21:46:07.199Z,103155.80
2023-02-03T21:48:40.417Z,103157.40
2023-02-03T21:51:28.029Z,103164.80
2023-02-03T21:54:02.433Z,103175.00
2023-02-03T21:56:45.495Z,103180.80
2023-02-03T21:59:33.931Z,103193.40
2023-02-03T22:02:03.526Z,103197.60
2023-02-03T22:04:32.055Z,103198.40
2023-02-03T22:07:01.525Z,103208.00
2023-02-03T22:09:29.486Z,103208.40
2023-02-03T22:11:57.189Z,103209.60
2023-02-03T22:14:25.076Z,103216.80
2023-02-03T22:16:52.843Z,103224.80
2023-02-03T22:19:21.057Z,103226.40
2023-02-03T22:21:50.797Z,103229.80
2023-02-03T22:24:18.645Z,103226.20
2023-02-03T22:26:46.604Z,103237.20
2023-02-03T22:29:14.512Z,103240.00
2023-02-03T22:31:42.934Z,103241.60
2023-02-03T22:34:11.003Z,103245.20
2023-02-03T22:36:39.610Z,103251.40
2023-02-03T22:39:08.197Z,103255.20
2023-02-03T22:41:37.139Z,103260.20
2023-02-03T22:44:05.475Z,103261.00
2023-02-03T22:46:33.150Z,103262.20
2023-02-03T22:49:00.829Z,103265.40
2023-02-03T22:51:28.612Z,103272.20
2023-02-03T22:53:56.621Z,103281.40
2023-02-03T22:56:24.465Z,103285.40
2023-02-03T22:58:53.798Z,103291.00
2023-02-03T23:01:25.701Z,103302.20
2023-02-03T23:03:54.336Z,103310.60
2023-02-03T23:06:22.164Z,103308.80
2023-02-03T23:08:49.845Z,103314.20
2023-02-03T23:11:18.024Z,103312.60
2023-02-03T23:13:45.821Z,103316.80
2023-02-03T23:16:15.201Z,103320.00
2023-02-03T23:18:43.033Z,103320.80
2023-02-03T23:21:12.612Z,103324.40
2023-02-03T23:23:41.602Z,103332.80
2023-02-03T23:26:09.795Z,103333.40
2023-02-03T23:28:37.478Z,103338.80
2023-02-03T23:31:05.479Z,103337.00
2023-02-03T23:33:33.483Z,103339.80
2023-02-03T23:36:01.329Z,103347.00
2023-02-03T23:38:29.225Z,103356.00
2023-02-03T23:40:57.696Z,103370.40
2023-02-03T23:43:25.835Z,103374.60
2023-02-03T23:45:53.498Z,103384.40
2023-02-03T23:48:21.320Z,103385.00
2023-02-03T23:50:49.238Z,103390.80
2023-02-03T23:53:16.988Z,103383.40
2023-02-03T23:55:45.156Z,103395.20
2023-02-03T23:58:13.410Z,103401.20
